地図

経路データ

SID SEASON NUMBER BASIN SUBBASIN NAME ISO_TIME NATURE LAT LON WMO_WIND WMO_PRES WMO_AGENCY TRACK_TYPE DIST2LAND LANDFALL IFLAG USA_AGENCY USA_ATCF_ID USA_LAT USA_LON USA_RECORD USA_STATUS USA_WIND USA_PRES USA_SSHS USA_R34_NE USA_R34_SE USA_R34_SW USA_R34_NW USA_R50_NE USA_R50_SE USA_R50_SW USA_R50_NW USA_R64_NE USA_R64_SE USA_R64_SW USA_R64_NW USA_POCI USA_ROCI USA_RMW USA_EYE TOKYO_LAT TOKYO_LON TOKYO_GRADE TOKYO_WIND TOKYO_PRES TOKYO_R50_DIR TOKYO_R50_LONG TOKYO_R50_SHORT TOKYO_R30_DIR TOKYO_R30_LONG TOKYO_R30_SHORT TOKYO_LAND CMA_LAT CMA_LON CMA_CAT CMA_WIND CMA_PRES HKO_LAT HKO_LON HKO_CAT HKO_WIND HKO_PRES NEWDELHI_LAT NEWDELHI_LON NEWDELHI_GRADE NEWDELHI_WIND NEWDELHI_PRES NEWDELHI_CI NEWDELHI_DP NEWDELHI_POCI REUNION_LAT REUNION_LON REUNION_TYPE REUNION_WIND REUNION_PRES REUNION_TNUM REUNION_CI REUNION_RMW REUNION_R34_NE REUNION_R34_SE REUNION_R34_SW REUNION_R34_NW REUNION_R50_NE REUNION_R50_SE REUNION_R50_SW REUNION_R50_NW REUNION_R64_NE REUNION_R64_SE REUNION_R64_SW REUNION_R64_NW BOM_LAT BOM_LON BOM_TYPE BOM_WIND BOM_PRES BOM_TNUM BOM_CI BOM_RMW BOM_R34_NE BOM_R34_SE BOM_R34_SW BOM_R34_NW BOM_R50_NE BOM_R50_SE BOM_R50_SW BOM_R50_NW BOM_R64_NE BOM_R64_SE BOM_R64_SW BOM_R64_NW BOM_ROCI BOM_POCI BOM_EYE BOM_POS_METHOD BOM_PRES_METHOD NADI_LAT NADI_LON NADI_CAT NADI_WIND NADI_PRES WELLINGTON_LAT WELLINGTON_LON WELLINGTON_WIND WELLINGTON_PRES DS824_LAT DS824_LON DS824_STAGE DS824_WIND DS824_PRES TD9636_LAT TD9636_LON TD9636_STAGE TD9636_WIND TD9636_PRES TD9635_LAT TD9635_LON TD9635_WIND TD9635_PRES TD9635_ROCI NEUMANN_LAT NEUMANN_LON NEUMANN_CLASS NEUMANN_WIND NEUMANN_PRES MLC_LAT MLC_LON MLC_CLASS MLC_WIND MLC_PRES USA_GUST BOM_GUST BOM_GUST_PER REUNION_GUST REUNION_GUST_PER USA_SEAHGT USA_SEARAD_NE USA_SEARAD_SE USA_SEARAD_SW USA_SEARAD_NW STORM_SPEED STORM_DIR
1961052S13095 1961 22 SI WA NOT_NAMED 1961-02-20 16:00:00 NR -13.0000 95.0000 main 1288 1288 __________O___ -1 -13.0000 95.0000 1 15 0 0
1961052S13095 1961 22 SI WA NOT_NAMED 1961-02-20 18:00:00 TS -12.9959 94.9960 main 1288 1288 O_________P___ jtwc_sh SH201961 -13.0000 95.0000 15 -1 -12.9918 94.9919 1 15 0 0
1961052S13095 1961 22 SI WA NOT_NAMED 1961-02-20 21:00:00 TS -12.9852 94.9853 main 1288 1288 P_________P___ SH201961 -12.9825 94.9825 15 -1 -12.9888 94.9890 1 15 0 0
1961052S13095 1961 22 SI WA NOT_NAMED 1961-02-21 00:00:00 TS -13.0039 95.0040 main 1288 1288 O_________P___ jtwc_sh SH201961 -13.0000 95.0000 15 -1 -13.0098 95.0100 1 15 1 128
1961052S13095 1961 22 SI WA NOT_NAMED 1961-02-21 01:00:00 TS -13.0194 95.0195 998 bom main 1288 1288 P_____O___P___ SH201961 -13.0193 95.0193 15 -1 -13.0000 95.0000 998 -13.0246 95.0248 1 15 2 134
1961052S13095 1961 22 SI WA NOT_NAMED 1961-02-21 03:00:00 TS -13.0718 95.0761 main 1289 1289 P_____P___P___ SH201961 -13.0775 95.0775 15 -1 -13.0543 95.0839 998 -13.0692 95.0693 1 15 2 135
1961052S13095 1961 22 SI WA NOT_NAMED 1961-02-21 04:00:00 TS -13.1078 95.1078 998 bom main 1289 1289 P_____O___O___ SH201961 -13.1146 95.1146 15 -1 -13.1000 95.1000 998 -13.1000 95.1000 1 15 3 149
1961052S13095 1961 22 SI WA NOT_NAMED 1961-02-21 06:00:00 TS -13.2036 95.1614 main 1290 1290 O_____P__OP___ jtwc_sh SH201961 -13.2000 95.2000 15 -1 -13.2358 95.0817 998 -13.2000 95.1000 TC 35 998 -13.1794 95.1792 1 15 3 148
1961052S13095 1961 22 SI WA NOT_NAMED 1961-02-21 07:00:00 TS -13.2536 95.1993 998 bom main 1298 1291 P_____O__PP___ SH201961 -13.2443 95.2443 15 -1 -13.3000 95.1000 998 -13.2529 95.1640 TC 35 998 -13.2263 95.2261 1 16 4 134
1961052S13095 1961 22 SI WA NOT_NAMED 1961-02-21 09:00:00 TS -13.3482 95.3205 main 1291 1293 P_____P__PP___ SH201961 -13.3425 95.3425 17 -1 -13.3702 95.2894 998 -13.3583 95.2911 TC 35 998 -13.3301 95.3298 1 17 5 128
1961052S13095 1961 22 SI WA NOT_NAMED 1961-02-21 10:00:00 TS -13.3969 95.3855 998 bom main 1293 1293 P_____O__PP___ SH201961 -13.3946 95.3946 18 -1 -13.4000 95.4000 998 -13.4104 95.3537 TC 35 998 -13.3851 95.3847 1 17 5 131
1961052S13095 1961 22 SI WA NOT_NAMED 1961-02-21 12:00:00 TS -13.5012 95.5018 main 1294 1294 O_____P__PP___ jtwc_sh SH201961 -13.5000 95.5000 20 -1 -13.4963 95.5370 998 -13.5132 95.4759 TC 35 998 -13.4967 95.4963 1 18 4 135
1961052S13095 1961 22 SI WA NOT_NAMED 1961-02-21 15:00:00 TS -13.6570 95.6566 main 1295 1295 P_____P__PP___ SH201961 -13.6575 95.6575 20 -1 -13.6546 95.6662 998 -13.6615 95.6477 TC 35 998 -13.6539 95.6538 1 19 4 136
1961052S13095 1961 22 SI WA NOT_NAMED 1961-02-21 16:00:00 TS -13.7049 95.7034 998 bom main 1295 1293 P_____O__PO___ SH201961 -13.7079 95.7079 20 -1 -13.7000 95.7000 998 -13.7089 95.7010 TC 35 998 -13.7000 95.7000 1 20 4 135
1961052S13095 1961 22 SI WA NOT_NAMED 1961-02-21 18:00:00 TS -13.7887 95.7887 main 1293 1293 O_____P__OP___ jtwc_sh SH201961 -13.8000 95.8000 20 -1 -13.7684 95.7684 998 -13.8000 95.8000 TC 35 998 -13.7750 95.7751 1 19 3 136
1961052S13095 1961 22 SI WA NOT_NAMED 1961-02-21 19:00:00 TS -13.8281 95.8285 998 bom main 1293 1291 P_____O__PP___ SH201961 -13.8443 95.8443 19 -1 -13.8000 95.8000 998 -13.8433 95.8452 TC 35 998 -13.8087 95.8088 1 18 3 135
1961052S13095 1961 22 SI WA NOT_NAMED 1961-02-21 21:00:00 TS -13.9003 95.9008 main 1291 1291 P_____P__PP___ SH201961 -13.9225 95.9225 17 -1 -13.8667 95.8667 998 -13.9212 95.9237 TC 35 998 -13.8687 95.8688 1 17 3 136
1961052S13095 1961 22 SI WA NOT_NAMED 1961-02-21 22:00:00 TS -13.9315 95.9319 998 bom main 1291 1289 P_____O__PP___ SH201961 -13.9546 95.9546 16 -1 -13.9000 95.9000 998 -13.9536 95.9554 TC 35 998 -13.8950 95.8951 1 17 2 138
1961052S13095 1961 22 SI WA NOT_NAMED 1961-02-22 00:00:00 TS -13.9829 95.9829 main 1289 1289 O_____P__OP___ jtwc_sh SH201961 -14.0000 96.0000 15 -1 -13.9746 95.9746 998 -14.0000 96.0000 TC 35 998 -13.9400 95.9401 1 16 2 134
1961052S13095 1961 22 SI WA NOT_NAMED 1961-02-22 01:00:00 TS -13.9987 95.9987 998 bom main 1289 1289 P_____O__PP___ SH201961 -14.0114 96.0114 15 -1 -14.0000 96.0000 998 -14.0119 96.0119 TC 35 998 -13.9587 95.9588 1 16 1 0
1961052S13095 1961 22 SI WA NOT_NAMED 1961-02-22 03:00:00 TS -14.0081 96.0081 main 1289 1289 P_____P__PP___ SH201961 -14.0150 96.0150 15 -1 -14.0054 96.0054 998 -14.0163 96.0163 TC 35 998 -13.9887 95.9888 1 15 0 0
1961052S13095 1961 22 SI WA NOT_NAMED 1961-02-22 04:00:00 TS -14.0068 96.0068 998 bom main 1289 1289 P_____O__PO___ SH201961 -14.0109 96.0109 15 -1 -14.0000 96.0000 998 -14.0122 96.0123 TC 35 998 -14.0000 96.0000 1 15 0 0
1961052S13095 1961 22 SI WA NOT_NAMED 1961-02-22 06:00:00 TS -14.0034 96.0034 main 1289 1289 O_____P__OP___ jtwc_sh SH201961 -14.0000 96.0000 15 -1 -14.0000 96.0000 998 -14.0000 96.0000 TC 35 998 -14.0171 96.0172 1 15 0 0
1961052S13095 1961 22 SI WA NOT_NAMED 1961-02-22 07:00:00 TS -14.0043 96.0043 998 bom main 1289 1289 P_____O__PP___ SH201961 -14.0000 96.0000 15 -1 -14.0000 96.0000 998 -14.0000 96.0000 TC 35 998 -14.0215 96.0216 1 15 0 0
1961052S13095 1961 22 SI WA NOT_NAMED 1961-02-22 09:00:00 TS -14.0048 96.0048 main 1289 1289 P_____P__PP___ SH201961 -14.0000 96.0000 15 -1 -14.0000 96.0000 998 -14.0000 96.0000 TC 35 998 -14.0239 96.0239 1 15 0 0
1961052S13095 1961 22 SI WA NOT_NAMED 1961-02-22 10:00:00 TS -14.0045 96.0045 998 bom main 1289 1289 P_____O__PP___ SH201961 -14.0000 96.0000 15 -1 -14.0000 96.0000 998 -14.0000 96.0000 TC 35 998 -14.0225 96.0225 1 15 0 0
1961052S13095 1961 22 SI WA NOT_NAMED 1961-02-22 12:00:00 TS -14.0033 96.0033 main 1289 1289 O_____P__PP___ jtwc_sh SH201961 -14.0000 96.0000 15 -1 -14.0000 96.0000 998 -14.0000 96.0000 TC 35 998 -14.0163 96.0163 1 15 0 0
1961052S13095 1961 22 SI WA NOT_NAMED 1961-02-22 15:00:00 TS -14.0007 96.0007 main 1289 1289 P_____P__PP___ SH201961 -14.0000 96.0000 15 -1 -14.0000 96.0000 998 -14.0000 96.0000 TC 35 998 -14.0037 96.0037 1 15 0 0
1961052S13095 1961 22 SI WA NOT_NAMED 1961-02-22 16:00:00 TS -14.0000 96.0000 998 bom main 1289 1289 P_____O__PO___ SH201961 -14.0000 96.0000 15 -1 -14.0000 96.0000 998 -14.0000 96.0000 TC 35 998 -14.0000 96.0000 1 15 0 0
1961052S13095 1961 22 SI WA NOT_NAMED 1961-02-22 18:00:00 TS -14.0000 96.0000 main 1289 1289 O_____P__OP___ jtwc_sh SH201961 -14.0000 96.0000 15 -1 -14.0000 96.0000 998 -14.0000 96.0000 TC 35 998 -14.0000 96.0000 1 14 0 0
1961052S13095 1961 22 SI WA NOT_NAMED 1961-02-22 19:00:00 TS -14.0000 96.0000 998 bom main 1289 1289 P_____O__PP___ SH201961 -14.0000 96.0000 14 -1 -14.0000 96.0000 998 -14.0000 96.0000 TC 35 998 -14.0000 96.0000 1 13 0 0
1961052S13095 1961 22 SI WA NOT_NAMED 1961-02-22 21:00:00 TS -14.0000 96.0000 main 1289 1289 P_____P__PP___ SH201961 -14.0000 96.0000 12 -1 -14.0000 96.0000 998 -14.0000 96.0000 TC 35 998 -14.0000 96.0000 1 12 0 0
1961052S13095 1961 22 SI WA NOT_NAMED 1961-02-22 22:00:00 TS -14.0000 96.0000 998 bom main 1289 1289 P_____O__PP___ SH201961 -14.0000 96.0000 11 -1 -14.0000 96.0000 998 -14.0000 96.0000 TC 35 998 -14.0000 96.0000 1 12 0 0
1961052S13095 1961 22 SI WA NOT_NAMED 1961-02-23 00:00:00 TS -14.0000 96.0000 main 1289 1289 O_____P__OP___ jtwc_sh SH201961 -14.0000 96.0000 10 -1 -14.0000 96.0000 998 -14.0000 96.0000 TC 35 998 -14.0000 96.0000 1 11 0 0
1961052S13095 1961 22 SI WA NOT_NAMED 1961-02-23 01:00:00 TS -14.0000 96.0000 998 bom main 1289 1289 P_____O__PP___ SH201961 -14.0000 96.0000 10 -1 -14.0000 96.0000 998 -14.0000 96.0000 TC 35 998 -14.0000 96.0000 1 11 0 0
1961052S13095 1961 22 SI WA NOT_NAMED 1961-02-23 03:00:00 TS -14.0000 96.0000 main 1289 1289 P_____P__PP___ SH201961 -14.0000 96.0000 10 -1 -14.0000 96.0000 998 -14.0000 96.0000 TC 35 998 -14.0000 96.0000 1 10 0 0
1961052S13095 1961 22 SI WA NOT_NAMED 1961-02-23 04:00:00 TS -14.0000 96.0000 998 bom main 1289 1289 P_____O__PO___ SH201961 -14.0000 96.0000 10 -1 -14.0000 96.0000 998 -14.0000 96.0000 TC 35 998 -14.0000 96.0000 1 10 0 0
1961052S13095 1961 22 SI WA NOT_NAMED 1961-02-23 06:00:00 TS -14.0000 95.9990 main 1289 1289 O_____P__OP___ jtwc_sh SH201961 -14.0000 96.0000 10 -1 -14.0000 96.0000 998 -14.0000 96.0000 TC 35 998 -14.0000 95.9948 1 12 0 0
1961052S13095 1961 22 SI WA NOT_NAMED 1961-02-23 07:00:00 TS -14.0000 95.9984 998 bom main 1289 1289 P_____O__PP___ SH201961 -14.0000 96.0000 11 -1 -14.0000 96.0000 998 -14.0000 96.0000 TC 35 998 -14.0000 95.9919 1 13 0 0
1961052S13095 1961 22 SI WA NOT_NAMED 1961-02-23 09:00:00 TS -14.0000 95.9974 main 1289 1289 P_____P__PP___ SH201961 -14.0000 96.0000 15 -1 -14.0000 96.0000 998 -14.0000 96.0000 TC 35 998 -14.0000 95.9868 1 16 0 0
1961052S13095 1961 22 SI WA NOT_NAMED 1961-02-23 10:00:00 TS -14.0000 95.9970 998 bom main 1289 1289 P_____O__PP___ SH201961 -14.0000 96.0000 16 -1 -14.0000 96.0000 998 -14.0000 96.0000 TC 35 998 -14.0000 95.9850 1 17 0 0
1961052S13095 1961 22 SI WA NOT_NAMED 1961-02-23 12:00:00 TS -14.0000 95.9968 main 1289 1289 O_____P__PP___ jtwc_sh SH201961 -14.0000 96.0000 20 -1 -14.0000 96.0000 998 -14.0000 96.0000 TC 35 998 -14.0000 95.9842 1 20 0 0
1961052S13095 1961 22 SI WA NOT_NAMED 1961-02-23 15:00:00 TS -14.0000 95.9957 main 1289 1289 P_____P__PP___ SH201961 -14.0000 95.9925 22 -1 -14.0000 96.0000 998 -14.0000 96.0000 TC 35 998 -14.0000 95.9933 1 23 0 0
1961052S13095 1961 22 SI WA NOT_NAMED 1961-02-23 16:00:00 TS -14.0000 95.9968 998 bom main 1289 1289 P_____O__PO___ SH201961 -14.0000 95.9921 23 -1 -14.0000 96.0000 998 -14.0000 96.0000 TC 35 998 -14.0000 96.0000 1 25 0 0
1961052S13095 1961 22 SI WA NOT_NAMED 1961-02-23 18:00:00 TS -14.0010 96.0012 main 1289 1289 O_____P__OP___ jtwc_sh SH201961 -14.0000 96.0000 25 -1 -14.0000 96.0000 998 -14.0000 96.0000 TC 35 998 -14.0052 96.0062 1 22 0 0
1961052S13095 1961 22 SI WA NOT_NAMED 1961-02-23 19:00:00 TS -14.0022 96.0031 998 bom main 1289 1289 P_____O__PP___ SH201961 -14.0000 96.0083 23 -1 -14.0000 96.0000 998 -14.0031 95.9875 TC 35 998 -14.0081 96.0112 1 21 0 0
1961052S13095 1961 22 SI WA NOT_NAMED 1961-02-23 21:00:00 TS -14.0043 96.0130 main 1289 1289 P_____P__PP___ SH201961 -14.0000 96.0350 20 -1 -14.0000 96.0000 998 -14.0081 95.9674 TC 35 998 -14.0131 96.0276 1 18 0 0
1961052S13095 1961 22 SI WA NOT_NAMED 1961-02-23 22:00:00 TS -14.0046 96.0226 998 bom main 1289 1280 P_____O__PP___ SH201961 -14.0000 96.0533 18 -1 -14.0000 96.0000 998 -14.0083 95.9665 TC 35 998 -14.0149 96.0399 1 17 1 88
1961052S13095 1961 22 SI WA NOT_NAMED 1961-02-24 00:00:00 TS -14.0031 96.0518 main 1280 1280 O_____P__OP___ jtwc_sh SH201961 -14.0000 96.1000 15 -1 -14.0000 95.9842 998 -14.0000 96.0000 TC 35 998 -14.0157 96.0750 1 14 1 87
1961052S13095 1961 22 SI WA NOT_NAMED 1961-02-24 01:00:00 TS -14.0016 96.0773 998 bom main 1280 1272 P_____O__PP___ SH201961 -14.0026 96.1224 14 -1 -14.0000 96.0000 998 -13.9884 96.0429 TC 35 997 -14.0143 96.0987 1 13 2 87
1961052S13095 1961 22 SI WA NOT_NAMED 1961-02-24 03:00:00 TS -13.9971 96.1595 main 1272 1272 P_____P__PP___ SH201961 -14.0075 96.1775 12 -1 -14.0079 96.1146 997 -13.9557 96.1674 TC 35 997 -14.0067 96.1607 1 11 3 85
1961052S13095 1961 22 SI WA NOT_NAMED 1961-02-24 04:00:00 TS -13.9905 96.2133 997 bom main 1272 1264 P_____O__PO___ SH201961 -14.0079 96.2121 11 -1 -14.0000 96.2000 997 -13.9369 96.2422 TC 35 997 -14.0000 96.2000 1 10 4 79
1961052S13095 1961 22 SI WA NOT_NAMED 1961-02-24 06:00:00 TS -13.9618 96.3377 main 1264 1248 O_____P__OP___ jtwc_sh SH201961 -14.0000 96.3000 10 -1 -13.9309 96.3946 997 -13.9000 96.4000 TC 35 997 -13.9781 96.2939 1 10 4 76
1961052S13095 1961 22 SI WA NOT_NAMED 1961-02-24 07:00:00 TS -13.9462 96.4041 997 bom main 1248 1240 P_____O__PP___ SH201961 -13.9890 96.3526 10 -1 -13.9000 96.5000 997 -13.8885 96.4667 TC 35 997 -13.9644 96.3488 1 11 4 79
1961052S13095 1961 22 SI WA NOT_NAMED 1961-02-24 09:00:00 TS -13.9229 96.5475 main 1240 1231 P_____P__PP___ SH201961 -13.9575 96.4775 12 -1 -13.8965 96.7103 997 -13.8703 96.6000 TC 35 997 -13.9326 96.4724 1 12 4 81
1961052S13095 1961 22 SI WA NOT_NAMED 1961-02-24 10:00:00 TS -13.9111 96.6205 997 bom main 1231 1215 P_____O__PP___ SH201961 -13.9388 96.5479 13 -1 -13.9000 96.8000 997 -13.8629 96.6666 TC 35 997 -13.9150 96.5401 1 12 4 78
1961052S13095 1961 22 SI WA NOT_NAMED 1961-02-24 12:00:00 TS -13.8796 96.7533 main 1215 1191 O_____P__PP___ jtwc_sh SH201961 -13.9000 96.7000 15 -1 -13.8703 96.8815 997 -13.8500 96.7999 TC 35 997 -13.8775 96.6850 1 13 4 76
1961052S13095 1961 22 SI WA NOT_NAMED 1961-02-24 15:00:00 TS -13.8322 96.9505 main 1191 1191 P_____P__PP___ SH201961 -13.8500 96.9425 15 -1 -13.8120 96.9482 997 -13.8297 97.0000 TC 35 997 -13.8191 96.9193 1 14 4 77
1961052S13095 1961 22 SI WA NOT_NAMED 1961-02-24 16:00:00 TS -13.8176 97.0245 997 bom main 1191 1175 P_____O__PO___ SH201961 -13.8333 97.0279 15 -1 -13.8000 97.0000 997 -13.8213 97.0666 TC 35 997 -13.8000 97.0000 1 15 5 81
1961052S13095 1961 22 SI WA NOT_NAMED 1961-02-24 18:00:00 TS -13.7941 97.1924 main 1175 1166 O_____P__OP___ jtwc_sh SH201961 -13.8000 97.2000 15 -1 -13.8066 97.2013 997 -13.8000 97.2000 TC 35 997 -13.7641 97.1605 1 14 5 81
1961052S13095 1961 22 SI WA NOT_NAMED 1961-02-24 19:00:00 TS -13.7796 97.2752 997 bom main 1166 1151 P_____O__PP___ SH201961 -13.7833 97.2860 14 -1 -13.8000 97.3000 997 -13.7852 97.2604 TC 35 997 -13.7460 97.2438 1 13 5 76
1961052S13095 1961 22 SI WA NOT_NAMED 1961-02-24 21:00:00 TS -13.7387 97.4303 main 1151 1143 P_____P__PP___ SH201961 -13.7500 97.4575 12 -1 -13.7309 97.4388 997 -13.7524 97.3837 TC 35 997 -13.7101 97.4140 1 12 5 75
1961052S13095 1961 22 SI WA NOT_NAMED 1961-02-24 22:00:00 TS -13.7189 97.5065 997 bom main 1143 1127 P_____O__PP___ SH201961 -13.7333 97.5412 11 -1 -13.7000 97.5000 997 -13.7350 97.4499 TC 35 997 -13.6926 97.5000 1 12 5 78
1961052S13095 1961 22 SI WA NOT_NAMED 1961-02-25 00:00:00 TS -13.6923 97.6594 main 1127 1127 O_____P__OP___ jtwc_sh SH201961 -13.7000 97.7000 10 -1 -13.7025 97.6254 997 -13.7000 97.6000 TC 35 997 -13.6588 97.6716 1 11 5 80
1961052S13095 1961 22 SI WA NOT_NAMED 1961-02-25 01:00:00 TS -13.6786 97.7387 997 bom main 1127 1103 P_____O__PP___ SH201961 -13.6833 97.7724 10 -1 -13.7000 97.7000 997 -13.6834 97.6924 TC 35 997 -13.6429 97.7563 1 11 5 77
1961052S13095 1961 22 SI WA NOT_NAMED 1961-02-25 03:00:00 TS -13.6388 97.9053 main 1103 1095 P_____P__PP___ SH201961 -13.6500 97.9075 10 -1 -13.6309 97.8946 997 -13.6501 97.8959 TC 35 997 -13.6133 97.9209 1 10 5 76
1961052S13095 1961 22 SI WA NOT_NAMED 1961-02-25 04:00:00 TS -13.6200 97.9890 997 bom main 1095 1088 P_____O__PO___ SH201961 -13.6333 97.9721 10 -1 -13.6000 98.0000 997 -13.6334 98.0007 TC 35 997 -13.6000 98.0000 1 10 5 80
1961052S13095 1961 22 SI WA NOT_NAMED 1961-02-25 06:00:00 TS -13.5965 98.1489 main 1088 1080 O_____P__OP___ jtwc_sh SH201961 -13.6000 98.1000 10 -1 -13.6025 98.2000 997 -13.6000 98.2000 TC 35 997 -13.5802 98.1447 1 10 5 81
1961052S13095 1961 22 SI WA NOT_NAMED 1961-02-25 07:00:00 TS -13.5833 98.2254 997 bom main 1080 1057 P_____O__PP___ SH201961 -13.5807 98.1667 10 -1 -13.6000 98.3000 997 -13.5833 98.2793 TC 35 996 -13.5718 98.2143 1 11 5 77
1961052S13095 1961 22 SI WA NOT_NAMED 1961-02-25 09:00:00 TS -13.5452 98.3753 main 1057 1057 P_____P__PP___ SH201961 -13.5425 98.3000 12 -1 -13.5343 98.5103 997 -13.5498 98.4171 TC 35 996 -13.5568 98.3492 1 12 4 75
1961052S13095 1961 22 SI WA NOT_NAMED 1961-02-25 10:00:00 TS -13.5268 98.4452 997 bom main 1057 1041 P_____O__PP___ SH201961 -13.5254 98.3667 13 -1 -13.5000 98.6000 997 -13.5331 98.4777 TC 35 996 -13.5499 98.4149 1 12 4 78
1961052S13095 1961 22 SI WA NOT_NAMED 1961-02-25 12:00:00 TS -13.5056 98.5652 main 1041 1034 O_____P__PP___ jtwc_sh SH201961 -13.5000 98.5000 15 -1 -13.4925 98.6944 996 -13.4998 98.5874 TC 35 996 -13.5357 98.5441 1 13 3 83
1961052S13095 1961 22 SI WA NOT_NAMED 1961-02-25 15:00:00 TS -13.4939 98.7276 main 1034 1026 P_____P__PP___ SH201961 -13.5000 98.7000 15 -1 -13.5092 98.7632 996 -13.4499 98.7390 TC 35 996 -13.5104 98.7358 1 14 3 85
1961052S13095 1961 22 SI WA NOT_NAMED 1961-02-25 16:00:00 TS -13.4876 98.7847 996 bom main 1026 1019 P_____O__PO___ SH201961 -13.5025 98.7666 15 -1 -13.5000 98.8000 996 -13.4332 98.7903 TC 35 996 -13.5000 98.8000 1 15 4 79
1961052S13095 1961 22 SI WA NOT_NAMED 1961-02-25 18:00:00 TS -13.4597 98.9137 main 1019 1003 O_____P__OP___ jtwc_sh SH201961 -13.5000 98.9000 15 -1 -13.4285 98.9298 996 -13.4000 98.9000 TC 35 996 -13.4697 98.9386 1 15 4 77
1961052S13095 1961 22 SI WA NOT_NAMED 1961-02-25 19:00:00 TS -13.4429 98.9813 996 bom main 1003 996 P_____O__PP___ SH201961 -13.4890 98.9667 15 -1 -13.4000 99.0000 996 -13.3833 98.9648 TC 35 996 -13.4531 99.0082 1 15 4 78
1961052S13095 1961 22 SI WA NOT_NAMED 1961-02-25 21:00:00 TS -13.4171 99.1155 main 996 988 P_____P__PP___ SH201961 -13.4575 99.1000 15 -1 -13.4025 99.1333 996 -13.3500 99.0976 TC 35 996 -13.4180 99.1466 1 15 4 78
1961052S13095 1961 22 SI WA NOT_NAMED 1961-02-25 22:00:00 TS -13.4022 99.1827 996 bom main 988 981 P_____O__PP___ SH201961 -13.4388 99.1667 15 -1 -13.4000 99.2000 996 -13.3333 99.1649 TC 35 996 -13.4000 99.2151 1 15 4 73
1961052S13095 1961 22 SI WA NOT_NAMED 1961-02-26 00:00:00 TS -13.3590 99.3165 main 981 966 O_____P__OP___ jtwc_sh SH201961 -13.4000 99.3000 15 -1 -13.3309 99.3334 996 -13.3000 99.3000 TC 35 996 -13.3642 99.3492 1 15 4 72
1961052S13095 1961 22 SI WA NOT_NAMED 1961-02-26 01:00:00 TS -13.3392 99.3843 996 bom main 966 959 P_____O__PP___ SH201961 -13.3833 99.3693 15 -1 -13.3000 99.4000 996 -13.2825 99.3684 TC 35 996 -13.3469 99.4144 1 15 4 77
1961052S13095 1961 22 SI WA NOT_NAMED 1961-02-26 03:00:00 TS -13.3129 99.5187 main 959 951 P_____P__PP___ SH201961 -13.3500 99.5075 15 -1 -13.3025 99.5333 996 -13.2476 99.5049 TC 35 996 -13.3145 99.5401 1 15 4 78
1961052S13095 1961 22 SI WA NOT_NAMED 1961-02-26 04:00:00 TS -13.2995 99.5842 996 bom main 951 944 P_____O__PO___ SH201961 -13.3333 99.5746 15 -1 -13.3000 99.6000 996 -13.2308 99.5718 TC 35 996 -13.3000 99.6000 1 15 4 75
1961052S13095 1961 22 SI WA NOT_NAMED 1961-02-26 06:00:00 TS -13.2627 99.7063 main 944 929 O_____P__OP___ jtwc_sh SH201961 -13.3000 99.7000 15 -1 -13.2309 99.7334 996 -13.2000 99.7000 TC 35 996 -13.2827 99.6982 1 15 4 73
1961052S13095 1961 22 SI WA NOT_NAMED 1961-02-26 07:00:00 TS -13.2451 99.7613 996 bom main 929 922 P_____O__PP___ SH201961 -13.2807 99.7557 15 -1 -13.2000 99.8000 996 -13.1884 99.7513 TC 35 995 -13.2758 99.7440 1 16 3 75
1961052S13095 1961 22 SI WA NOT_NAMED 1961-02-26 09:00:00 TS -13.2225 99.8653 main 922 922 P_____P__PP___ SH201961 -13.2425 99.8575 17 -1 -13.1939 99.9385 996 -13.1702 99.8406 TC 36 995 -13.2634 99.8327 1 17 3 78
1961052S13095 1961 22 SI WA NOT_NAMED 1961-02-26 10:00:00 TS -13.2142 99.9139 996 bom main 922 915 P_____O__PP___ SH201961 -13.2254 99.9054 18 -1 -13.2000 100.000 996 -13.1628 99.8814 TC 36 995 -13.2572 99.8773 1 17 3 81
1961052S13095 1961 22 SI WA NOT_NAMED 1961-02-26 12:00:00 TS -13.2012 100.002 main 915 908 O_____P__PP___ jtwc_sh SH201961 -13.2000 100.000 20 -1 -13.2129 100.074 995 -13.1498 99.9624 TC 37 995 -13.2435 99.9712 1 18 3 85
1961052S13095 1961 22 SI WA NOT_NAMED 1961-02-26 15:00:00 TS -13.1946 100.130 main 908 902 P_____P__PP___ SH201961 -13.2074 100.127 20 -1 -13.2150 100.157 995 -13.1295 100.103 TC 38 995 -13.2137 100.136 1 19 3 86
1961052S13095 1961 22 SI WA NOT_NAMED 1961-02-26 16:00:00 TS -13.1884 100.183 995 bom main 902 895 P_____O__PO___ SH201961 -13.2103 100.176 20 -1 -13.2000 100.200 995 -13.1212 100.161 TC 39 995 -13.2000 100.200 1 20 4 79
1961052S13095 1961 22 SI WA NOT_NAMED 1961-02-26 18:00:00 TS -13.1590 100.313 main 895 880 O_____P__OP___ jtwc_sh SH201961 -13.2000 100.300 20 -1 -13.1285 100.321 995 -13.1000 100.300 TC 40 995 -13.1666 100.344 1 20 4 76
1961052S13095 1961 22 SI WA NOT_NAMED 1961-02-26 19:00:00 TS -13.1384 100.395 995 bom main 880 867 P_____O__PP___ SH201961 -13.1781 100.383 20 -1 -13.1000 100.400 995 -13.0883 100.389 TC 40 995 -13.1474 100.423 1 21 5 77
1961052S13095 1961 22 SI WA NOT_NAMED 1961-02-26 21:00:00 TS -13.0994 100.585 main 867 860 P_____P__PP___ SH201961 -13.1150 100.578 22 -1 -13.1025 100.595 995 -13.0606 100.585 TC 40 995 -13.1040 100.592 1 22 6 78
1961052S13095 1961 22 SI WA NOT_NAMED 1961-02-26 22:00:00 TS -13.0757 100.688 995 bom main 860 839 P_____O__PP___ SH201961 -13.0776 100.684 23 -1 -13.1000 100.700 995 -13.0435 100.689 TC 40 995 -13.0799 100.682 1 22 6 74
1961052S13095 1961 22 SI WA NOT_NAMED 1961-02-27 00:00:00 TS -13.0131 100.895 main 839 833 O_____P__OP___ jtwc_sh SH201961 -13.0000 100.900 25 -1 -13.0388 100.900 995 -13.0000 100.900 TC 40 995 -13.0265 100.874 1 23 6 72
1961052S13095 1961 22 SI WA NOT_NAMED 1961-02-27 01:00:00 TS -12.9808 100.992 995 bom main 833 811 P_____O__PP___ SH201961 -12.9666 100.995 25 -1 -13.0000 101.000 995 -12.9734 100.997 TC 40 994 -12.9974 100.976 1 23 6 71
1961052S13095 1961 22 SI WA NOT_NAMED 1961-02-27 03:00:00 TS -12.9155 101.190 main 811 805 P_____P__PP___ SH201961 -12.8999 101.185 25 -1 -12.9333 101.200 994 -12.9105 101.190 TC 40 994 -12.9341 101.189 1 24 6 71
1961052S13095 1961 22 SI WA NOT_NAMED 1961-02-27 04:00:00 TS -12.8817 101.292 994 bom main 805 784 P_____O__PO___ SH201961 -12.8666 101.284 25 -1 -12.9000 101.300 994 -12.8753 101.290 TC 40 994 -12.9000 101.300 1 25 6 71
1961052S13095 1961 22 SI WA NOT_NAMED 1961-02-27 06:00:00 TS -12.8118 101.505 main 784 779 O_____P__OP___ jtwc_sh SH201961 -12.8000 101.500 25 -1 -12.8333 101.492 994 -12.8000 101.500 TC 40 994 -12.8255 101.532 1 25 7 72
1961052S13095 1961 22 SI WA NOT_NAMED 1961-02-27 07:00:00 TS -12.7776 101.624 994 bom main 779 753 P_____O__PP___ SH201961 -12.7693 101.625 25 -1 -12.8000 101.600 994 -12.7641 101.616 TC 40 993 -12.7854 101.654 1 26 8 74
1961052S13095 1961 22 SI WA NOT_NAMED 1961-02-27 09:00:00 TS -12.7082 101.883 main 753 748 P_____P__PP___ SH201961 -12.7075 101.892 27 -1 -12.7359 101.861 993 -12.6891 101.862 TC 41 993 -12.7011 101.907 1 27 8 75
1961052S13095 1961 22 SI WA NOT_NAMED 1961-02-27 10:00:00 TS -12.6714 102.018 993 bom main 748 723 P_____O__PP___ SH201961 -12.6746 102.030 28 -1 -12.7000 102.000 993 -12.6501 101.993 TC 41 993 -12.6576 102.035 1 27 8 73
1961052S13095 1961 22 SI WA NOT_NAMED 1961-02-27 12:00:00 TS -12.5884 102.285 main 723 684 O_____P__PP___ jtwc_sh SH201961 -12.6000 102.300 30 -1 -12.6037 102.267 992 -12.5688 102.262 TC 42 992 -12.5697 102.294 1 28 8 70
1961052S13095 1961 22 SI WA NOT_NAMED 1961-02-27 15:00:00 TS -12.4450 102.668 main 684 680 P_____P__PP___ SH201961 -12.4499 102.658 30 -1 -12.4453 102.667 992 -12.4391 102.681 TC 43 991 -12.4408 102.677 1 29 8 69
1961052S13095 1961 22 SI WA NOT_NAMED 1961-02-27 16:00:00 TS -12.3977 102.793 992 bom main 680 661 P_____O__PO___ SH201961 -12.3975 102.772 30 -1 -12.4000 102.800 992 -12.3938 102.822 TC 44 991 -12.4000 102.800 1 30 8 70
1961052S13095 1961 22 SI WA NOT_NAMED 1961-02-27 18:00:00 TS -12.3114 103.043 main 661 657 O_____P__OP___ jtwc_sh SH201961 -12.3000 103.000 30 -1 -12.3399 103.067 991 -12.3000 103.100 TC 45 991 -12.3171 103.046 1 28 8 71
1961052S13095 1961 22 SI WA NOT_NAMED 1961-02-27 19:00:00 TS -12.2671 103.171 991 bom main 651 630 P_____O__PP___ SH201961 -12.2583 103.119 29 -1 -12.3000 103.200 991 -12.2425 103.249 TC 45 990 -12.2766 103.168 1 27 8 70
1961052S13095 1961 22 SI WA NOT_NAMED 1961-02-27 21:00:00 TS -12.1722 103.425 main 630 615 P_____P__PP___ SH201961 -12.1850 103.357 27 -1 -12.1642 103.467 991 -12.1281 103.541 TC 45 990 -12.1989 103.404 1 25 8 69
1961052S13095 1961 22 SI WA NOT_NAMED 1961-02-27 22:00:00 TS -12.1292 103.548 991 bom main 615 598 P_____O__PP___ SH201961 -12.1533 103.475 26 -1 -12.1000 103.600 991 -12.0767 103.675 TC 45 990 -12.1625 103.518 1 25 7 73
1961052S13095 1961 22 SI WA NOT_NAMED 1961-02-28 00:00:00 TS -12.0633 103.785 main 598 583 O_____P__OP___ jtwc_sh SH201961 -12.1000 103.700 25 -1 -12.0200 103.890 990 -12.0000 103.900 TC 45 990 -12.0963 103.733 1 23 7 75
1961052S13095 1961 22 SI WA NOT_NAMED 1961-02-28 01:00:00 TS -12.0398 103.888 990 bom main 583 578 P_____O__PP___ SH201961 -12.0750 103.814 24 -1 -12.0000 104.000 990 -11.9816 103.982 TC 45 990 -12.0672 103.833 1 22 5 79
1961052S13095 1961 22 SI WA NOT_NAMED 1961-02-28 03:00:00 TS -12.0114 104.050 main 578 573 P_____P__PP___ SH201961 -12.0350 104.030 22 -1 -11.9945 104.075 990 -11.9739 104.096 TC 45 991 -12.0187 104.018 1 20 5 81
1961052S13095 1961 22 SI WA NOT_NAMED 1961-02-28 04:00:00 TS -12.0040 104.119 991 bom main 573 564 P_____O__PO___ SH201961 -12.0200 104.129 21 -1 -12.0000 104.100 991 -11.9800 104.136 TC 45 991 -12.0000 104.100 1 20 4 85
1961052S13095 1961 22 SI WA NOT_NAMED 1961-02-28 06:00:00 TS -11.9954 104.257 main 564 564 O_____P__OP___ jtwc_sh SH201961 -12.0000 104.300 20 -1 -12.0000 104.236 991 -12.0000 104.200 TC 45 992 -11.9770 104.248 1 21 4 87
1961052S13095 1961 22 SI WA NOT_NAMED 1961-02-28 07:00:00 TS -11.9938 104.316 992 bom main 564 560 P_____O__PP___ SH201961 -11.9943 104.370 21 -1 -12.0000 104.300 992 -12.0097 104.230 TC -11.9711 104.312 1 22 3 90
1961052S13095 1961 22 SI WA NOT_NAMED 1961-02-28 09:00:00 TS -11.9956 104.409 main 560 560 P_____P__PP___ SH201961 -11.9925 104.480 25 -1 -12.0000 104.370 992 -12.0254 104.292 TC -11.9679 104.425 1 24 3 92
1961052S13095 1961 22 SI WA NOT_NAMED 1961-02-28 10:00:00 TS -11.9981 104.449 993 bom main 560 555 P_____O__PP___ SH201961 -11.9945 104.524 26 -1 -12.0000 104.400 993 -12.0315 104.323 TC -11.9698 104.475 1 25 2 94
1961052S13095 1961 22 SI WA NOT_NAMED 1961-02-28 12:00:00 TS -12.0037 104.528 main 555 551 O_____P__PP___ jtwc_sh SH201961 -12.0000 104.600 30 -1 -12.0000 104.493 993 -12.0406 104.387 TC -11.9781 104.562 1 26 2 93
1961052S13095 1961 22 SI WA NOT_NAMED 1961-02-28 15:00:00 TS -12.0084 104.647 main 551 547 P_____P__PP___ SH201961 -12.0000 104.715 30 -1 -12.0000 104.650 994 -12.0472 104.485 TC -11.9950 104.669 1 29 2 92
1961052S13095 1961 22 SI WA NOT_NAMED 1961-02-28 16:00:00 TS -12.0095 104.682 995 bom main 547 544 P_____O__PO___ SH201961 -12.0000 104.747 30 -1 -12.0000 104.700 995 -12.0477 104.518 TC -12.0000 104.700 1 30 2 90
1961052S13095 1961 22 SI WA NOT_NAMED 1961-02-28 18:00:00 TS -12.0093 104.751 main 544 544 O_____P__PP___ jtwc_sh SH201961 -12.0000 104.800 30 -1 -12.0000 104.793 995 -12.0465 104.585 TC -12.0000 104.775 1 29 2 89
1961052S13095 1961 22 SI WA NOT_NAMED 1961-02-28 21:00:00 TS -12.0080 104.837 main 544 540 P_____P__PP___ SH201961 -12.0000 104.858 27 -1 -12.0000 104.913 996 -12.0400 104.687 TC -12.0000 104.869 1 27 2 89
1961052S13095 1961 22 SI WA NOT_NAMED 1961-03-01 00:00:00 TS -12.0058 104.904 main 540 540 O_____P__PP___ jtwc_sh SH201961 -12.0000 104.900 25 -1 -12.0000 104.988 997 -12.0291 104.791 TC -12.0000 104.940 1 26 1 88
1961052S13095 1961 22 SI WA NOT_NAMED 1961-03-01 01:00:00 TS -12.0049 104.925 998 bom main 540 537 P_____O__PP___ SH201961 -12.0000 104.919 25 -1 -12.0000 105.000 998 -12.0247 104.825 TC -12.0000 104.959 1 26 1 87
1961052S13095 1961 22 SI WA NOT_NAMED 1961-03-01 03:00:00 TS -12.0024 104.964 main 537 537 P_____P__PP___ SH201961 -12.0000 104.958 25 -1 -12.0000 105.003 998 -12.0153 104.895 TC -12.0000 104.989 1 25 1 86
1961052S13095 1961 22 SI WA NOT_NAMED 1961-03-01 04:00:00 TS -12.0011 104.981 998 bom main 537 537 P_____O__PO___ SH201961 -12.0000 104.975 25 -1 -12.0000 105.000 998 -12.0103 104.930 TC -12.0000 105.000 1 25 1 87
1961052S13095 1961 22 SI WA NOT_NAMED 1961-03-01 06:00:00 TS -12.0000 105.004 main 537 537 O_____P__OP___ jtwc_sh SH201961 -12.0000 105.000 25 -1 -12.0000 105.000 998 -12.0000 105.000 TC 30 999 -12.0000 105.015 1 24 1 0
1961052S13095 1961 22 SI WA NOT_NAMED 1961-03-01 07:00:00 TS -12.0000 105.008 999 bom main 537 537 P_____O___P___ SH201961 -12.0000 105.007 24 -1 -12.0000 105.000 999 TC -12.0000 105.020 1 23 0 0
1961052S13095 1961 22 SI WA NOT_NAMED 1961-03-01 09:00:00 TS -12.0000 105.011 main 537 537 P_____P___P___ SH201961 -12.0000 105.010 22 -1 -12.0000 105.000 999 TC -12.0000 105.023 1 22 0 0
1961052S13095 1961 22 SI WA NOT_NAMED 1961-03-01 10:00:00 TS -12.0000 105.010 999 bom main 537 537 P_____O___P___ SH201961 -12.0000 105.008 21 -1 -12.0000 105.000 999 TC -12.0000 105.023 1 22 0 0
1961052S13095 1961 22 SI WA NOT_NAMED 1961-03-01 12:00:00 TS -12.0000 105.006 main 537 537 O_____P___P___ jtwc_sh SH201961 -12.0000 105.000 20 -1 -12.0000 105.000 999 TC -12.0000 105.018 1 21 0 0
1961052S13095 1961 22 SI WA NOT_NAMED 1961-03-01 15:00:00 NR -12.0000 105.002 main 537 537 ______P___P___ SH201961 -1 -12.0000 105.000 999 TC -12.0000 105.005 1 20 0 0
1961052S13095 1961 22 SI WA NOT_NAMED 1961-03-01 16:00:00 NR -12.0000 105.000 999 bom main 537 537 ______O___O___ SH201961 -1 -12.0000 105.000 999 TC -12.0000 105.000 1 20 0 0
1961052S13095 1961 22 SI WA NOT_NAMED 1961-03-01 18:00:00 NR -12.0000 105.000 main 537 537 ______P_______ -1 -12.0000 105.000 999 TC 1 0 0
1961052S13095 1961 22 SI WA NOT_NAMED 1961-03-01 21:00:00 NR -12.0000 105.000 main 537 537 ______P_______ -1 -12.0000 105.000 999 TC 1 0 0
1961052S13095 1961 22 SI WA NOT_NAMED 1961-03-01 22:00:00 NR -12.0000 105.000 999 bom main 537 ______O_______ -1 -12.0000 105.000 999 TC 1 0 0

IBTrACS Databaseについて

本データベースは、米国NOAAが公開する1842年以降の世界の熱帯低気圧のベストトラックデータアーカイブInternational Best Track Archive for Climate Stewardship (IBTrACS)を、ウェブで閲覧しやすい形式に変換したものです。

最終更新日:2021-12-03